This is the latest recevied weather packets stored in our database for station/object LZ2SLL-13. If no packets are shown the sender has not sent any weather packets the latest 10 day(s).
| Time | Temp. | Humidity | Pressure | Rain* | Wind** | Luminosity | Snow |
|---|---|---|---|---|---|---|---|
| 1777037099 | 16.67° C | 46% | - | 0 mm | - | 454 W/m² | - |
| 1777036798 | 16.11° C | 48% | - | 0 mm | - | 736 W/m² | - |
| 1777036497 | 15.56° C | 48% | - | 0 mm | - | 275 W/m² | - |
| 1777036197 | 15.56° C | 48% | - | 0 mm | - | 328 W/m² | - |
| 1777035896 | 16.11° C | 47% | - | 0 mm | - | 294 W/m² | - |
| 1777035595 | 16.67° C | 46% | - | 0 mm | - | 332 W/m² | - |
| 1777035295 | 16.67° C | 47% | - | 0 mm | - | 368 W/m² | - |
| 1777034994 | 17.22° C | 42% | - | 0 mm | - | 531 W/m² | - |
| 1777034693 | 17.78° C | 45% | - | 0 mm | - | 942 W/m² | - |
| 1777034393 | 16.67° C | 48% | - | 0 mm | - | 918 W/m² | - |
| 1777034092 | 16.11° C | 46% | - | 0 mm | - | 303 W/m² | - |
| 1777033791 | 15.56° C | 50% | - | 0 mm | - | 398 W/m² | - |
| 1777033491 | 17.22° C | 47% | - | 0 mm | - | 774 W/m² | - |
| 1777033190 | 16.11° C | 48% | - | 0 mm | - | 377 W/m² | - |
| 1777032891 | 16.11° C | 47% | - | 0 mm | - | 297 W/m² | - |
| 1777032589 | 16.11° C | 49% | - | 0 mm | - | 328 W/m² | - |
| 1777032288 | 16.11° C | 48% | - | 0 mm | - | 655 W/m² | - |
| 1777031987 | 16.11° C | 48% | - | 0 mm | - | 362 W/m² | - |
| 1777031687 | 16.67° C | 46% | - | 0 mm | - | 374 W/m² | - |
| 1777031386 | 15.56° C | 49% | - | 0 mm | - | 418 W/m² | - |
| 1777031085 | 16.11° C | 48% | - | 0 mm | - | 391 W/m² | - |
| 1777030785 | 16.11° C | 48% | - | 0 mm | - | 407 W/m² | - |
| 1777030485 | 16.67° C | 48% | - | 0 mm | - | 345 W/m² | - |
| 1777030184 | 15.56° C | 49% | - | 0 mm | - | 366 W/m² | - |
| 1777029883 | 16.11° C | 52% | - | 0 mm | - | 398 W/m² | - |
* Rain latest hour (hover to see other rain measurements)
** Current wind speed in m/s (hover to see current wind gust speed)